createdAt,value
2018-05-23T00:02:18.049Z,41.66
2018-05-23T00:04:46.490Z,41.65
2018-05-23T00:07:15.602Z,41.72
2018-05-23T00:09:43.985Z,41.75
2018-05-23T00:12:12.352Z,41.77
2018-05-23T00:14:40.695Z,41.67
2018-05-23T00:17:09.038Z,41.91
2018-05-23T00:19:37.438Z,41.84
2018-05-23T00:22:05.824Z,41.78
2018-05-23T00:24:34.212Z,41.67
2018-05-23T00:27:02.591Z,41.64
2018-05-23T00:29:31.801Z,41.75
2018-05-23T00:32:00.153Z,41.66
2018-05-23T00:34:28.502Z,41.74
2018-05-23T00:36:56.864Z,41.72
2018-05-23T00:39:25.228Z,41.73
2018-05-23T00:41:54.352Z,41.81
2018-05-23T00:44:22.683Z,41.96
2018-05-23T00:46:51.078Z,42.01
2018-05-23T00:49:20.209Z,41.93
2018-05-23T00:51:48.586Z,41.90
2018-05-23T00:54:16.932Z,42.19
2018-05-23T00:56:46.086Z,42.42
2018-05-23T00:59:14.423Z,42.36
2018-05-23T01:01:42.792Z,42.44
2018-05-23T01:04:11.183Z,42.58
2018-05-23T01:06:39.539Z,42.71
2018-05-23T01:09:07.906Z,42.81
2018-05-23T01:11:37.057Z,43.10
2018-05-23T01:14:05.425Z,43.39
2018-05-23T01:16:33.777Z,43.49
2018-05-23T01:19:02.916Z,43.61
2018-05-23T01:21:31.269Z,43.79
2018-05-23T01:23:59.616Z,43.83
2018-05-23T01:26:28.009Z,43.92
2018-05-23T01:28:57.161Z,44.15
2018-05-23T01:31:25.573Z,44.20
2018-05-23T01:33:54.710Z,44.27
2018-05-23T01:36:23.105Z,44.28
2018-05-23T01:38:51.445Z,44.54
2018-05-23T01:41:20.601Z,44.75
2018-05-23T01:43:48.972Z,45.01
2018-05-23T01:46:17.310Z,44.93
2018-05-23T01:49:03.551Z,45.10
2018-05-23T01:51:31.924Z,45.50
2018-05-23T01:54:00.318Z,45.62
2018-05-23T01:56:28.666Z,45.66
2018-05-23T01:58:57.049Z,45.77
2018-05-23T02:01:25.485Z,45.96
2018-05-23T02:03:53.863Z,46.07
2018-05-23T02:06:22.254Z,46.20
2018-05-23T02:08:51.475Z,46.29
2018-05-23T02:11:19.792Z,46.50
2018-05-23T02:13:48.119Z,46.63
2018-05-23T02:16:17.258Z,46.92
2018-05-23T02:18:46.409Z,46.83
2018-05-23T02:21:14.784Z,47.04
2018-05-23T02:23:43.928Z,47.12
2018-05-23T02:26:12.306Z,47.22
2018-05-23T02:28:41.484Z,47.43
2018-05-23T02:31:09.831Z,47.21
2018-05-23T02:33:38.927Z,47.30
2018-05-23T02:36:08.040Z,47.45
2018-05-23T02:38:36.386Z,47.59
2018-05-23T02:41:04.760Z,47.76
2018-05-23T02:43:33.137Z,48.00
2018-05-23T02:46:01.548Z,48.10
2018-05-23T02:48:29.925Z,48.43
2018-05-23T02:50:58.281Z,48.48
2018-05-23T02:53:26.716Z,48.52
2018-05-23T02:55:55.090Z,48.62
2018-05-23T02:58:23.492Z,48.66
2018-05-23T03:00:51.866Z,48.86
2018-05-23T03:03:20.207Z,48.77
2018-05-23T03:05:49.355Z,48.93
2018-05-23T03:08:17.737Z,48.88
2018-05-23T03:10:46.124Z,48.86
2018-05-23T03:13:14.469Z,48.90
2018-05-23T03:15:42.845Z,49.08
2018-05-23T03:18:11.206Z,48.95
2018-05-23T03:20:39.582Z,49.19
2018-05-23T03:23:07.958Z,49.05
2018-05-23T03:25:37.106Z,49.04
2018-05-23T03:28:05.530Z,49.17
2018-05-23T03:30:34.676Z,49.18
2018-05-23T03:33:03.051Z,49.31
2018-05-23T03:35:31.440Z,49.25
2018-05-23T03:37:59.839Z,49.33
2018-05-23T03:40:28.221Z,49.26
2018-05-23T03:42:56.602Z,49.38
2018-05-23T03:45:24.998Z,49.40
2018-05-23T03:47:53.411Z,49.09
2018-05-23T03:50:21.807Z,49.13
2018-05-23T03:52:50.204Z,49.12
2018-05-23T03:55:18.612Z,49.23
2018-05-23T03:57:46.994Z,49.17
2018-05-23T04:00:33.033Z,49.19
2018-05-23T04:03:19.080Z,49.09
2018-05-23T04:06:05.154Z,49.04
2018-05-23T04:08:33.536Z,49.06
2018-05-23T04:11:01.905Z,49.05
2018-05-23T04:13:30.276Z,48.85
2018-05-23T04:15:58.730Z,49.01
2018-05-23T04:18:27.903Z,48.84
2018-05-23T04:20:56.310Z,48.65
2018-05-23T04:23:24.738Z,48.45
2018-05-23T04:25:53.113Z,48.56
2018-05-23T04:28:21.492Z,48.57
2018-05-23T04:30:49.900Z,48.35
2018-05-23T04:33:18.410Z,48.06
2018-05-23T04:35:46.785Z,48.04
2018-05-23T04:38:15.171Z,47.71
2018-05-23T04:40:43.551Z,47.62
2018-05-23T04:43:11.961Z,47.42
2018-05-23T04:45:40.324Z,47.47
2018-05-23T04:48:08.716Z,47.76
2018-05-23T04:50:37.118Z,47.17
2018-05-23T04:53:05.484Z,46.96
2018-05-23T04:55:33.888Z,46.65
2018-05-23T04:58:03.087Z,46.79
2018-05-23T05:00:31.500Z,46.57
2018-05-23T05:02:59.890Z,46.13
2018-05-23T05:05:28.245Z,45.97
2018-05-23T05:07:56.632Z,45.67
2018-05-23T05:10:24.975Z,45.59
2018-05-23T05:12:53.391Z,45.28
2018-05-23T05:15:21.763Z,45.35
2018-05-23T05:17:50.863Z,45.10
2018-05-23T05:20:20.017Z,45.12
2018-05-23T05:22:48.361Z,44.91
2018-05-23T05:25:17.503Z,44.48
2018-05-23T05:27:45.894Z,44.49
2018-05-23T05:30:14.273Z,44.04
2018-05-23T05:32:44.164Z,43.77
2018-05-23T05:35:12.564Z,43.31
2018-05-23T05:37:40.924Z,43.27
2018-05-23T05:40:09.258Z,42.78
2018-05-23T05:42:39.580Z,42.60
2018-05-23T05:45:08.756Z,41.99
2018-05-23T05:47:37.128Z,36.55
2018-05-23T05:50:05.497Z,33.20
2018-05-23T05:52:33.856Z,30.00
2018-05-23T05:55:02.233Z,30.65
2018-05-23T05:57:30.612Z,28.40
2018-05-23T05:59:58.987Z,26.89
2018-05-23T06:02:27.342Z,27.04
2018-05-23T06:04:55.692Z,26.62
2018-05-23T06:07:24.082Z,25.45
2018-05-23T06:09:53.296Z,25.69
2018-05-23T06:12:22.444Z,27.02
2018-05-23T06:14:50.794Z,26.13
2018-05-23T06:17:19.162Z,28.16
2018-05-23T06:19:47.602Z,27.72
2018-05-23T06:22:15.988Z,27.01
2018-05-23T06:24:44.328Z,27.21
2018-05-23T06:27:12.740Z,27.93
2018-05-23T06:29:41.874Z,27.01
2018-05-23T06:32:10.292Z,26.85
2018-05-23T06:34:38.649Z,27.00
2018-05-23T06:37:06.993Z,26.70
2018-05-23T06:39:36.143Z,26.72
2018-05-23T06:42:04.508Z,31.14
2018-05-23T06:44:32.880Z,33.11
2018-05-23T06:47:01.262Z,34.26
2018-05-23T06:49:29.704Z,34.32
2018-05-23T06:51:58.845Z,34.29
2018-05-23T06:54:27.271Z,34.65
2018-05-23T06:56:56.417Z,34.26
2018-05-23T06:59:24.751Z,34.62
2018-05-23T07:01:53.861Z,34.82
2018-05-23T07:04:22.219Z,35.12
2018-05-23T07:06:51.372Z,34.91
2018-05-23T07:09:19.708Z,35.15
2018-05-23T07:11:48.804Z,35.21
2018-05-23T07:14:17.965Z,34.94
2018-05-23T07:16:46.337Z,35.11
2018-05-23T07:19:14.708Z,34.73
2018-05-23T07:21:43.085Z,33.77
2018-05-23T07:24:11.453Z,33.55
2018-05-23T07:26:39.832Z,33.99
2018-05-23T07:29:08.259Z,33.95
2018-05-23T07:31:37.452Z,32.83
2018-05-23T07:34:05.792Z,32.74
2018-05-23T07:36:34.161Z,32.60
2018-05-23T07:39:02.501Z,31.92
2018-05-23T07:41:31.735Z,32.61
2018-05-23T07:44:00.176Z,32.91
2018-05-23T07:46:29.287Z,32.49
2018-05-23T07:48:57.663Z,32.59
2018-05-23T07:51:26.792Z,31.75
2018-05-23T07:53:55.163Z,31.68
2018-05-23T07:56:23.559Z,31.49
2018-05-23T07:58:51.906Z,31.45
2018-05-23T08:01:20.301Z,31.47
2018-05-23T08:03:48.640Z,31.64
2018-05-23T08:06:17.748Z,31.16
2018-05-23T08:08:46.107Z,31.38
2018-05-23T08:11:15.202Z,30.89
2018-05-23T08:13:43.657Z,30.75
2018-05-23T08:16:12.036Z,30.31
2018-05-23T08:18:40.391Z,29.86
2018-05-23T08:21:08.764Z,29.95
2018-05-23T08:23:37.148Z,29.93
2018-05-23T08:26:05.580Z,29.68
2018-05-23T08:28:34.679Z,29.45
2018-05-23T08:31:03.790Z,28.71
2018-05-23T08:33:32.160Z,29.13
2018-05-23T08:36:01.310Z,29.57
2018-05-23T08:38:29.675Z,29.19
2018-05-23T08:40:58.046Z,29.04
2018-05-23T08:43:26.418Z,28.95
2018-05-23T08:45:54.825Z,28.51
2018-05-23T08:48:23.188Z,26.40
2018-05-23T08:50:51.584Z,24.51
2018-05-23T08:53:20.026Z,23.10
2018-05-23T08:55:48.375Z,22.96
2018-05-23T08:58:17.528Z,22.72
2018-05-23T09:00:45.877Z,22.53
2018-05-23T09:03:14.258Z,22.83
2018-05-23T09:05:42.662Z,23.14
2018-05-23T09:08:11.059Z,23.10
2018-05-23T09:10:39.409Z,22.82
2018-05-23T09:13:07.769Z,23.24
2018-05-23T09:15:36.165Z,24.43
2018-05-23T09:18:04.541Z,24.63
2018-05-23T09:20:32.923Z,24.13
2018-05-23T09:23:01.271Z,23.37
2018-05-23T09:25:30.501Z,22.70
2018-05-23T09:27:58.801Z,22.50
2018-05-23T09:30:27.162Z,22.12
2018-05-23T09:32:55.535Z,22.25
2018-05-23T09:35:23.929Z,22.45
2018-05-23T09:37:52.308Z,21.24
2018-05-23T09:40:21.217Z,20.04
2018-05-23T09:42:49.613Z,21.43
2018-05-23T09:45:18.069Z,21.74
2018-05-23T09:47:46.517Z,22.39
2018-05-23T09:50:15.643Z,21.68
2018-05-23T09:52:44.003Z,21.52
2018-05-23T09:55:12.592Z,22.28
2018-05-23T09:57:42.952Z,21.73
2018-05-23T10:00:11.354Z,22.31
2018-05-23T10:02:39.728Z,21.86
2018-05-23T10:05:08.076Z,21.21
2018-05-23T10:07:36.472Z,21.78
2018-05-23T10:10:04.817Z,21.63
2018-05-23T10:12:33.156Z,21.29
2018-05-23T10:15:01.514Z,21.88
2018-05-23T10:17:29.861Z,22.90
2018-05-23T10:19:58.210Z,23.72
2018-05-23T10:22:26.589Z,24.00
2018-05-23T10:24:54.981Z,24.84
2018-05-23T10:27:23.348Z,26.12
2018-05-23T10:29:51.958Z,27.34
2018-05-23T10:32:20.333Z,27.42
2018-05-23T10:34:48.713Z,26.75
2018-05-23T10:37:17.090Z,27.63
2018-05-23T10:39:45.563Z,28.25
2018-05-23T10:42:13.907Z,28.14
2018-05-23T10:44:42.287Z,28.03
2018-05-23T10:47:11.423Z,27.74
2018-05-23T10:49:39.781Z,27.54
2018-05-23T10:52:08.999Z,27.25
2018-05-23T10:54:37.357Z,27.67
2018-05-23T10:57:05.786Z,27.20
2018-05-23T10:59:34.157Z,27.32
2018-05-23T11:02:02.617Z,27.46
2018-05-23T11:04:30.955Z,27.77
2018-05-23T11:06:59.321Z,27.67
2018-05-23T11:09:28.423Z,27.50
2018-05-23T11:11:56.767Z,27.36
2018-05-23T11:14:25.128Z,27.26
2018-05-23T11:16:53.478Z,26.98
2018-05-23T11:19:22.573Z,27.03
2018-05-23T11:21:51.824Z,27.25
2018-05-23T11:24:20.188Z,26.86
2018-05-23T11:26:48.521Z,26.36
2018-05-23T11:29:17.636Z,26.48
2018-05-23T11:31:46.011Z,26.76
2018-05-23T11:34:15.189Z,26.37
2018-05-23T11:36:43.565Z,26.64
2018-05-23T11:39:11.899Z,26.77
2018-05-23T11:41:40.277Z,27.29
2018-05-23T11:44:08.707Z,27.04
2018-05-23T11:46:37.086Z,27.10
2018-05-23T11:49:06.233Z,27.49
2018-05-23T11:51:34.654Z,27.25
2018-05-23T11:54:02.996Z,27.50
2018-05-23T11:56:31.371Z,27.33
2018-05-23T11:58:59.736Z,27.48
2018-05-23T12:01:28.075Z,27.42
2018-05-23T12:03:56.422Z,27.25
2018-05-23T12:06:24.787Z,26.88
2018-05-23T12:08:53.213Z,27.12
2018-05-23T12:11:21.599Z,27.25
2018-05-23T12:13:50.737Z,27.58
2018-05-23T12:16:19.156Z,27.70
2018-05-23T12:18:47.491Z,27.56
2018-05-23T12:21:15.848Z,27.94
2018-05-23T12:23:44.980Z,27.68
2018-05-23T12:26:13.324Z,27.85
2018-05-23T12:28:42.425Z,27.98
2018-05-23T12:31:10.931Z,27.83
2018-05-23T12:33:40.039Z,27.71
2018-05-23T12:36:08.454Z,27.79
2018-05-23T12:38:37.570Z,27.56
2018-05-23T12:41:06.793Z,28.24
2018-05-23T12:43:35.056Z,27.81
2018-05-23T12:46:03.464Z,28.23
2018-05-23T12:48:31.811Z,27.99
2018-05-23T12:51:00.154Z,27.95
2018-05-23T12:53:28.520Z,27.67
2018-05-23T12:55:56.920Z,27.34
2018-05-23T12:58:25.284Z,27.37
2018-05-23T13:00:53.641Z,26.41
2018-05-23T13:03:22.050Z,26.47
2018-05-23T13:05:50.387Z,25.99
2018-05-23T13:08:18.752Z,25.57
2018-05-23T13:10:47.139Z,25.51
2018-05-23T13:13:15.496Z,25.99
2018-05-23T13:15:44.640Z,25.87
2018-05-23T13:18:13.115Z,25.39
2018-05-23T13:20:41.455Z,24.49
2018-05-23T13:23:10.574Z,24.94
2018-05-23T13:25:38.928Z,24.60
2018-05-23T13:28:08.170Z,24.69
2018-05-23T13:30:36.561Z,24.89
2018-05-23T13:33:05.007Z,25.07
2018-05-23T13:35:33.421Z,24.34
2018-05-23T13:38:01.780Z,25.08
2018-05-23T13:40:30.120Z,25.10
2018-05-23T13:42:59.264Z,24.89
2018-05-23T13:45:27.610Z,25.31
2018-05-23T13:47:55.989Z,25.15
2018-05-23T13:50:24.369Z,25.58
2018-05-23T13:52:52.834Z,25.62
2018-05-23T13:55:21.313Z,25.57
2018-05-23T13:57:49.723Z,25.60
2018-05-23T14:00:18.092Z,25.66
2018-05-23T14:02:46.477Z,26.04
2018-05-23T14:05:14.836Z,26.06
2018-05-23T14:07:43.212Z,25.49
2018-05-23T14:10:11.580Z,25.33
2018-05-23T14:12:39.944Z,25.55
2018-05-23T14:15:09.092Z,25.45
2018-05-23T14:17:37.555Z,26.01
2018-05-23T14:20:05.879Z,26.33
2018-05-23T14:22:34.282Z,26.06
2018-05-23T14:25:02.660Z,26.08
2018-05-23T14:27:31.018Z,26.01
2018-05-23T14:29:59.425Z,26.22
2018-05-23T14:32:27.792Z,26.14
2018-05-23T14:34:56.141Z,25.86
2018-05-23T14:37:24.515Z,25.79
2018-05-23T14:39:52.892Z,26.24
2018-05-23T14:42:21.317Z,26.11
2018-05-23T14:44:49.701Z,25.91
2018-05-23T14:47:18.090Z,25.84
2018-05-23T14:49:46.438Z,25.42
2018-05-23T14:52:14.810Z,25.07
2018-05-23T14:54:43.194Z,25.16
2018-05-23T14:57:11.575Z,25.23
2018-05-23T14:59:39.927Z,25.72
2018-05-23T15:02:08.308Z,25.76
2018-05-23T15:04:36.690Z,25.47
2018-05-23T15:07:05.112Z,26.06
2018-05-23T15:09:33.498Z,25.81
2018-05-23T15:12:01.870Z,25.78
2018-05-23T15:14:30.221Z,25.31
2018-05-23T15:16:58.658Z,25.32
2018-05-23T15:19:27.806Z,25.69
2018-05-23T15:21:56.153Z,25.78
2018-05-23T15:24:24.532Z,25.36
2018-05-23T15:26:52.876Z,25.81
2018-05-23T15:29:21.261Z,25.80
2018-05-23T15:31:49.638Z,26.02
2018-05-23T15:34:17.981Z,26.22
2018-05-23T15:36:46.360Z,26.51
2018-05-23T15:39:14.711Z,26.93
2018-05-23T15:41:44.025Z,26.99
2018-05-23T15:44:12.356Z,27.01
2018-05-23T15:46:41.503Z,26.97
2018-05-23T15:49:09.877Z,26.87
2018-05-23T15:51:38.293Z,26.82
2018-05-23T15:54:06.692Z,27.00
2018-05-23T15:56:35.079Z,26.90
2018-05-23T15:59:04.216Z,27.06
2018-05-23T16:01:32.562Z,27.26
2018-05-23T16:04:01.703Z,26.88
2018-05-23T16:06:30.113Z,26.69
2018-05-23T16:08:58.457Z,26.50
2018-05-23T16:11:26.845Z,26.49
2018-05-23T16:13:55.291Z,26.54
2018-05-23T16:16:23.635Z,26.57
2018-05-23T16:18:52.848Z,26.73
2018-05-23T16:21:21.989Z,26.27
2018-05-23T16:23:50.327Z,26.75
2018-05-23T16:26:19.507Z,26.73
2018-05-23T16:28:47.868Z,26.92
2018-05-23T16:31:16.219Z,27.15
2018-05-23T16:33:44.633Z,27.09
2018-05-23T16:36:13.010Z,27.28
2018-05-23T16:38:41.416Z,27.33
2018-05-23T16:41:10.579Z,27.41
2018-05-23T16:43:38.976Z,27.09
2018-05-23T16:46:08.115Z,27.01
2018-05-23T16:48:36.466Z,27.21
2018-05-23T16:51:05.639Z,27.32
2018-05-23T16:53:34.022Z,27.20
2018-05-23T16:56:02.425Z,27.87
2018-05-23T16:58:31.588Z,27.66
2018-05-23T17:00:59.929Z,27.72
2018-05-23T17:03:28.323Z,27.59
2018-05-23T17:05:56.682Z,27.52
2018-05-23T17:08:25.075Z,27.76
2018-05-23T17:10:53.441Z,27.78
2018-05-23T17:13:21.804Z,27.92
2018-05-23T17:15:50.962Z,27.74
2018-05-23T17:18:19.340Z,27.38
2018-05-23T17:20:47.696Z,27.54
2018-05-23T17:23:16.070Z,27.60
2018-05-23T17:25:44.456Z,27.81
2018-05-23T17:28:13.034Z,27.99
2018-05-23T17:30:41.404Z,28.16
2018-05-23T17:33:09.798Z,27.74
2018-05-23T17:35:38.247Z,28.05
2018-05-23T17:38:06.611Z,28.03
2018-05-23T17:40:35.757Z,28.27
2018-05-23T17:43:04.152Z,28.18
2018-05-23T17:45:32.562Z,28.33
2018-05-23T17:48:01.730Z,28.47
2018-05-23T17:50:30.072Z,28.37
2018-05-23T17:52:58.430Z,28.66
2018-05-23T17:55:27.565Z,28.63
2018-05-23T17:57:55.932Z,28.96
2018-05-23T18:00:24.304Z,28.91
2018-05-23T18:02:52.685Z,29.18
2018-05-23T18:05:21.044Z,29.08
2018-05-23T18:07:50.156Z,29.25
2018-05-23T18:10:18.624Z,29.31
2018-05-23T18:12:46.973Z,29.45
2018-05-23T18:15:15.327Z,29.57
2018-05-23T18:17:43.737Z,29.35
2018-05-23T18:20:12.906Z,29.51
2018-05-23T18:22:41.507Z,29.79
2018-05-23T18:25:09.988Z,29.76
2018-05-23T18:27:38.373Z,29.88
2018-05-23T18:30:07.497Z,29.99
2018-05-23T18:32:35.903Z,30.00
2018-05-23T18:35:04.289Z,30.09
2018-05-23T18:37:32.633Z,30.09
2018-05-23T18:40:01.765Z,30.20
2018-05-23T18:42:30.156Z,30.28
2018-05-23T18:44:58.558Z,30.29
2018-05-23T18:47:26.965Z,30.48
2018-05-23T18:49:55.345Z,30.80
2018-05-23T18:52:23.704Z,30.65
2018-05-23T18:54:52.070Z,30.54
2018-05-23T18:57:20.482Z,30.63
2018-05-23T18:59:48.881Z,31.04
2018-05-23T19:02:17.284Z,31.07
2018-05-23T19:04:45.683Z,31.29
2018-05-23T19:07:14.476Z,31.55
2018-05-23T19:09:42.866Z,31.35
2018-05-23T19:12:11.245Z,31.86
2018-05-23T19:14:39.642Z,31.90
2018-05-23T19:17:08.008Z,31.71
2018-05-23T19:19:36.522Z,31.76
2018-05-23T19:22:04.830Z,31.75
2018-05-23T19:24:33.274Z,31.67
2018-05-23T19:27:01.621Z,31.82
2018-05-23T19:29:29.991Z,32.01
2018-05-23T19:31:58.446Z,31.99
2018-05-23T19:34:26.816Z,32.16
2018-05-23T19:36:55.201Z,32.28
2018-05-23T19:39:23.571Z,32.38
2018-05-23T19:41:51.921Z,32.55
2018-05-23T19:44:20.336Z,32.58
2018-05-23T19:46:48.702Z,32.69
2018-05-23T19:49:17.078Z,33.01
2018-05-23T19:51:45.439Z,33.13
2018-05-23T19:54:13.795Z,33.27
2018-05-23T19:56:42.961Z,33.35
2018-05-23T19:59:11.327Z,33.43
2018-05-23T20:01:39.696Z,33.49
2018-05-23T20:04:08.065Z,33.42
2018-05-23T20:06:36.442Z,33.66
2018-05-23T20:09:05.613Z,33.72
2018-05-23T20:11:34.753Z,33.82
2018-05-23T20:14:03.106Z,33.89
2018-05-23T20:16:31.544Z,33.99
2018-05-23T20:18:59.889Z,34.01
2018-05-23T20:21:28.265Z,34.12
2018-05-23T20:23:56.644Z,34.25
2018-05-23T20:26:25.008Z,34.26
2018-05-23T20:28:53.389Z,34.31
2018-05-23T20:31:21.751Z,34.29
2018-05-23T20:33:50.128Z,34.42
2018-05-23T20:36:18.524Z,34.47
2018-05-23T20:38:46.913Z,34.45
2018-05-23T20:41:16.358Z,34.55
2018-05-23T20:43:44.751Z,34.58
2018-05-23T20:46:13.893Z,34.71
2018-05-23T20:48:42.256Z,34.89
2018-05-23T20:51:10.604Z,35.05
2018-05-23T20:53:38.962Z,35.12
2018-05-23T20:56:07.369Z,35.32
2018-05-23T20:58:36.509Z,35.28
2018-05-23T21:01:04.864Z,35.51
2018-05-23T21:03:33.317Z,35.89
2018-05-23T21:06:01.689Z,36.27
2018-05-23T21:08:30.948Z,36.54
2018-05-23T21:10:59.343Z,36.72
2018-05-23T21:13:27.820Z,36.85
2018-05-23T21:15:56.195Z,36.79
2018-05-23T21:18:24.582Z,37.15
2018-05-23T21:20:52.944Z,37.49
2018-05-23T21:23:21.304Z,37.97
2018-05-23T21:25:49.694Z,38.40
2018-05-23T21:28:18.054Z,38.82
2018-05-23T21:30:46.407Z,39.06
2018-05-23T21:33:14.755Z,39.28
2018-05-23T21:35:43.088Z,39.43
2018-05-23T21:38:11.450Z,39.72
2018-05-23T21:40:40.574Z,39.98
2018-05-23T21:43:08.948Z,40.16
2018-05-23T21:45:37.332Z,40.42
2018-05-23T21:48:05.731Z,40.61
2018-05-23T21:50:34.130Z,40.82
2018-05-23T21:53:02.880Z,40.90
2018-05-23T21:55:31.402Z,41.02
2018-05-23T21:57:59.784Z,41.26
2018-05-23T22:00:28.145Z,41.41
2018-05-23T22:02:56.485Z,41.51
2018-05-23T22:05:25.619Z,41.71
2018-05-23T22:07:54.391Z,41.86
2018-05-23T22:10:22.849Z,41.94
2018-05-23T22:12:51.218Z,42.06
2018-05-23T22:15:20.338Z,42.13
2018-05-23T22:17:48.733Z,42.33
2018-05-23T22:20:17.632Z,42.46
2018-05-23T22:22:46.022Z,42.52
2018-05-23T22:25:14.367Z,42.64
2018-05-23T22:27:42.753Z,42.75
2018-05-23T22:30:11.143Z,42.82
2018-05-23T22:32:39.530Z,42.89
2018-05-23T22:35:07.881Z,43.07
2018-05-23T22:37:36.326Z,43.27
2018-05-23T22:40:04.691Z,43.18
2018-05-23T22:42:33.075Z,43.29
2018-05-23T22:45:01.489Z,43.35
2018-05-23T22:47:29.826Z,43.46
2018-05-23T22:49:58.197Z,43.42
2018-05-23T22:52:26.556Z,43.54
2018-05-23T22:54:54.955Z,43.57
2018-05-23T22:57:23.331Z,43.59
2018-05-23T22:59:51.691Z,43.73
2018-05-23T23:02:20.063Z,43.81
2018-05-23T23:04:48.413Z,43.80
2018-05-23T23:07:17.543Z,43.94
2018-05-23T23:09:45.904Z,44.04
2018-05-23T23:12:14.297Z,44.05
2018-05-23T23:14:42.647Z,44.14
2018-05-23T23:17:11.033Z,44.33
2018-05-23T23:19:39.439Z,44.40
2018-05-23T23:22:07.805Z,44.51
2018-05-23T23:24:36.163Z,44.62
2018-05-23T23:27:04.529Z,44.73
2018-05-23T23:29:33.687Z,44.68
2018-05-23T23:32:02.061Z,44.69
2018-05-23T23:34:30.434Z,44.70
2018-05-23T23:36:58.903Z,44.77
2018-05-23T23:39:27.282Z,44.87
2018-05-23T23:41:55.622Z,44.90
2018-05-23T23:44:24.718Z,45.04
2018-05-23T23:46:53.941Z,45.12
2018-05-23T23:49:22.288Z,45.27
2018-05-23T23:51:51.393Z,45.31
2018-05-23T23:54:20.540Z,45.45
2018-05-23T23:56:49.671Z,45.66
2018-05-23T23:59:18.102Z,45.78
